createdAt,value
2019-04-25T00:09:42.766Z,99.90
2019-04-25T00:12:13.269Z,99.90
2019-04-25T00:14:43.713Z,99.90
2019-04-25T00:17:13.590Z,99.90
2019-04-25T00:19:43.344Z,99.90
2019-04-25T00:22:42.864Z,99.90
2019-04-25T00:25:44.404Z,99.90
2019-04-25T00:28:12.494Z,99.90
2019-04-25T00:30:43.494Z,99.90
2019-04-25T00:33:13.404Z,99.90
2019-04-25T00:35:44.566Z,99.90
2019-04-25T00:38:14.488Z,99.90
2019-04-25T00:40:44.740Z,99.90
2019-04-25T00:43:14.503Z,99.90
2019-04-25T00:45:44.561Z,99.90
2019-04-25T00:48:15.169Z,99.90
2019-04-25T00:50:44.779Z,99.90
2019-04-25T00:53:14.330Z,99.90
2019-04-25T00:55:44.324Z,99.90
2019-04-25T00:58:23.982Z,99.90
2019-04-25T01:01:08.277Z,99.90
2019-04-25T01:03:37.846Z,99.90
2019-04-25T01:06:07.451Z,99.90
2019-04-25T01:08:37.020Z,99.90
2019-04-25T01:11:06.641Z,99.90
2019-04-25T01:13:36.376Z,99.90
2019-04-25T01:16:06.128Z,99.90
2019-04-25T01:18:37.459Z,99.90
2019-04-25T01:21:07.096Z,99.90
2019-04-25T01:23:36.795Z,99.90
2019-04-25T01:26:06.520Z,99.90
2019-04-25T01:28:36.195Z,99.90
2019-04-25T01:31:07.955Z,99.90
2019-04-25T01:33:37.562Z,99.90
2019-04-25T01:36:24.603Z,99.90
2019-04-25T01:39:01.856Z,99.90
2019-04-25T01:41:51.231Z,99.90
2019-04-25T01:44:24.802Z,99.90
2019-04-25T01:46:55.311Z,99.90
2019-04-25T01:49:25.509Z,99.90
2019-04-25T01:51:57.452Z,99.90
2019-04-25T01:54:26.348Z,99.90
2019-04-25T01:56:56.216Z,99.90
2019-04-25T01:59:26.019Z,99.90
2019-04-25T02:01:55.666Z,99.90
2019-04-25T02:04:25.295Z,99.90
2019-04-25T02:06:55.621Z,99.90
2019-04-25T02:09:25.886Z,99.90
2019-04-25T02:12:23.702Z,99.90
2019-04-25T02:14:54.794Z,99.90
2019-04-25T02:17:24.730Z,99.90
2019-04-25T02:19:55.475Z,99.90
2019-04-25T02:22:25.580Z,99.90
2019-04-25T02:24:56.238Z,99.90
2019-04-25T02:27:26.727Z,99.90
2019-04-25T02:29:57.227Z,99.90
2019-04-25T02:32:26.936Z,99.90
2019-04-25T02:34:59.686Z,99.90
2019-04-25T02:37:27.812Z,99.90
2019-04-25T02:40:00.004Z,99.90
2019-04-25T02:42:28.789Z,99.90
2019-04-25T02:45:08.695Z,99.90
2019-04-25T02:48:05.687Z,99.90
2019-04-25T02:50:47.718Z,99.90
2019-04-25T02:53:37.657Z,99.90
2019-04-25T02:56:26.169Z,99.90
2019-04-25T02:58:38.727Z,99.90
2019-04-25T03:01:17.978Z,99.90
2019-04-25T03:03:41.520Z,99.90
2019-04-25T03:06:11.169Z,99.90
2019-04-25T03:08:40.862Z,99.90
2019-04-25T03:11:10.483Z,99.90
2019-04-25T03:13:40.097Z,99.90
2019-04-25T03:16:11.075Z,99.90
2019-04-25T03:19:04.798Z,99.90
2019-04-25T03:21:35.467Z,99.90
2019-04-25T03:24:08.126Z,99.90
2019-04-25T03:26:40.231Z,99.90
2019-04-25T03:29:07.733Z,99.90
2019-04-25T03:31:37.441Z,99.90
2019-04-25T03:34:10.208Z,99.90
2019-04-25T03:36:38.363Z,99.90
2019-04-25T03:39:08.769Z,99.90
2019-04-25T03:41:38.648Z,99.90
2019-04-25T03:44:08.230Z,99.90
2019-04-25T03:46:38.075Z,99.90
2019-04-25T03:49:07.834Z,99.90
2019-04-25T03:51:37.495Z,99.90
2019-04-25T03:54:08.519Z,99.90
2019-04-25T03:56:49.652Z,99.90
2019-04-25T03:59:10.568Z,99.90
2019-04-25T04:01:40.393Z,99.90
2019-04-25T04:04:11.081Z,99.90
2019-04-25T04:06:40.871Z,99.90
2019-04-25T04:09:10.460Z,99.90
2019-04-25T04:11:40.255Z,99.90
2019-04-25T04:14:10.325Z,99.90
2019-04-25T04:16:44.354Z,99.90
2019-04-25T04:19:15.839Z,99.90
2019-04-25T04:22:01.166Z,99.90
2019-04-25T04:24:55.770Z,99.90
2019-04-25T04:27:25.743Z,99.90
2019-04-25T04:29:56.649Z,99.90
2019-04-25T04:32:26.472Z,99.90
2019-04-25T04:34:56.152Z,99.90
2019-04-25T04:37:25.745Z,99.90
2019-04-25T04:39:55.383Z,99.90
2019-04-25T04:42:24.971Z,99.90
2019-04-25T04:44:54.550Z,99.90
2019-04-25T04:47:24.210Z,99.90
2019-04-25T04:49:54.105Z,99.90
2019-04-25T04:52:25.713Z,99.90
2019-04-25T04:55:05.337Z,99.90
2019-04-25T04:57:32.902Z,99.90
2019-04-25T04:59:57.637Z,99.90
2019-04-25T05:02:43.308Z,99.90
2019-04-25T05:05:34.790Z,99.90
2019-04-25T05:08:08.508Z,99.90
2019-04-25T05:10:38.106Z,99.90
2019-04-25T05:13:07.748Z,99.90
2019-04-25T05:15:38.215Z,99.90
2019-04-25T05:18:07.808Z,99.90
2019-04-25T05:20:37.603Z,99.90
2019-04-25T05:23:08.920Z,99.90
2019-04-25T05:25:38.635Z,99.90
2019-04-25T05:28:08.235Z,99.90
2019-04-25T05:30:46.295Z,99.90
2019-04-25T05:33:18.648Z,99.90
2019-04-25T05:35:47.243Z,99.90
2019-04-25T05:38:20.109Z,99.90
2019-04-25T05:41:00.864Z,99.90
2019-04-25T05:43:30.566Z,99.90
2019-04-25T05:46:00.148Z,99.90
2019-04-25T05:48:31.689Z,99.90
2019-04-25T05:51:01.268Z,99.90
2019-04-25T05:53:31.052Z,99.90
2019-04-25T05:56:00.733Z,99.90
2019-04-25T05:58:30.306Z,99.90
2019-04-25T06:01:01.366Z,99.90
2019-04-25T06:03:31.405Z,99.90
2019-04-25T06:06:00.968Z,99.90
2019-04-25T06:08:33.821Z,99.90
2019-04-25T06:11:17.928Z,99.90
2019-04-25T06:14:06.546Z,99.90
2019-04-25T06:16:37.891Z,99.90
2019-04-25T06:19:26.427Z,99.90
2019-04-25T06:21:57.155Z,99.90
2019-04-25T06:24:34.234Z,99.90
2019-04-25T06:27:27.059Z,99.90
2019-04-25T06:30:04.422Z,99.90
2019-04-25T06:32:35.345Z,99.90
2019-04-25T06:35:07.409Z,99.90
2019-04-25T06:37:37.067Z,99.90
2019-04-25T06:40:07.486Z,99.90
2019-04-25T06:42:38.842Z,99.90
2019-04-25T06:45:21.508Z,99.90
2019-04-25T06:48:04.519Z,99.90
2019-04-25T06:50:35.294Z,99.90
2019-04-25T06:53:05.424Z,99.90
2019-04-25T06:55:35.039Z,99.90
2019-04-25T06:58:11.738Z,99.90
2019-04-25T07:00:41.173Z,99.90
2019-04-25T07:03:07.277Z,99.90
2019-04-25T07:05:40.584Z,99.90
2019-04-25T07:08:08.188Z,99.90
2019-04-25T07:10:37.763Z,99.90
2019-04-25T07:13:07.428Z,99.90
2019-04-25T07:15:37.101Z,99.90
2019-04-25T07:18:06.778Z,99.90
2019-04-25T07:20:36.855Z,99.90
2019-04-25T07:23:06.612Z,99.90
2019-04-25T07:25:39.203Z,99.90
2019-04-25T07:28:35.666Z,99.90
2019-04-25T07:31:45.788Z,99.90
2019-04-25T07:34:18.784Z,99.90
2019-04-25T07:36:48.898Z,99.90
2019-04-25T07:39:18.539Z,99.90
2019-04-25T07:41:48.394Z,99.90
2019-04-25T07:44:19.647Z,99.90
2019-04-25T07:46:49.363Z,99.90
2019-04-25T07:49:19.124Z,99.90
2019-04-25T07:51:48.768Z,99.90
2019-04-25T07:54:24.173Z,99.90
2019-04-25T07:56:55.129Z,99.90
2019-04-25T07:59:36.328Z,99.90
2019-04-25T08:02:20.849Z,99.90
2019-04-25T08:04:52.057Z,99.90
2019-04-25T08:07:46.424Z,99.90
2019-04-25T08:10:36.974Z,99.90
2019-04-25T08:13:06.157Z,99.90
2019-04-25T08:15:47.503Z,99.90
2019-04-25T08:18:25.476Z,99.90
2019-04-25T08:21:04.337Z,99.90
2019-04-25T08:23:37.963Z,99.90
2019-04-25T08:26:19.405Z,99.90
2019-04-25T08:28:55.034Z,99.90
2019-04-25T08:31:39.459Z,99.70
2019-04-25T08:34:16.633Z,98.60
2019-04-25T08:36:54.157Z,99.20
2019-04-25T08:39:27.862Z,97.70
2019-04-25T08:42:10.906Z,99.90
2019-04-25T08:44:44.839Z,91.20
2019-04-25T08:47:18.189Z,88.00
2019-04-25T08:50:08.893Z,85.90
2019-04-25T08:52:40.673Z,91.20
2019-04-25T08:55:33.001Z,69.90
2019-04-25T08:58:15.101Z,72.30
2019-04-25T09:01:15.049Z,90.90
2019-04-25T09:03:56.173Z,60.20
2019-04-25T09:06:26.424Z,61.00
2019-04-25T09:08:58.745Z,56.00
2019-04-25T09:11:34.838Z,61.90
2019-04-25T09:14:05.290Z,55.30
2019-04-25T09:16:37.833Z,54.10
2019-04-25T09:19:33.361Z,53.60
2019-04-25T09:22:44.581Z,58.90
2019-04-25T09:25:20.914Z,56.90
2019-04-25T09:27:56.108Z,61.80
2019-04-25T09:30:53.866Z,54.50
2019-04-25T09:33:39.085Z,53.70
2019-04-25T09:36:57.749Z,51.00
2019-04-25T09:39:45.466Z,51.30
2019-04-25T09:42:26.639Z,54.70
2019-04-25T09:45:33.635Z,53.70
2019-04-25T09:48:46.755Z,55.10
2019-04-25T09:51:51.175Z,51.70
2019-04-25T09:54:42.388Z,52.40
2019-04-25T09:57:43.379Z,54.90
2019-04-25T10:00:26.549Z,51.90
2019-04-25T10:06:23.367Z,57.10
2019-04-25T10:09:38.430Z,52.60
2019-04-25T10:12:08.693Z,55.90
2019-04-25T10:15:32.033Z,53.40
2019-04-25T10:18:08.530Z,51.00
2019-04-25T10:20:45.169Z,45.00
2019-04-25T10:23:17.633Z,48.80
2019-04-25T10:25:53.703Z,46.20
2019-04-25T10:28:25.902Z,45.50
2019-04-25T10:30:56.629Z,49.00
2019-04-25T10:33:28.290Z,47.50
2019-04-25T10:36:09.674Z,44.60
2019-04-25T10:39:01.912Z,46.20
2019-04-25T10:41:28.607Z,49.10
2019-04-25T10:44:00.049Z,49.80
2019-04-25T10:46:46.896Z,48.90
2019-04-25T10:49:31.494Z,49.30
2019-04-25T10:52:01.866Z,47.40
2019-04-25T10:54:39.713Z,45.20
2019-04-25T10:57:45.501Z,46.10
2019-04-25T11:00:34.245Z,47.70
2019-04-25T11:03:18.326Z,48.70
2019-04-25T11:05:50.913Z,50.90
2019-04-25T11:08:21.263Z,51.60
2019-04-25T11:11:05.291Z,52.40
2019-04-25T11:13:36.589Z,50.80
2019-04-25T11:16:13.417Z,49.00
2019-04-25T11:18:47.605Z,48.70
2019-04-25T11:21:27.211Z,46.90
2019-04-25T11:24:06.669Z,46.30
2019-04-25T11:26:50.458Z,44.40
2019-04-25T11:29:36.419Z,45.00
2019-04-25T11:32:07.037Z,45.90
2019-04-25T11:34:40.222Z,44.30
2019-04-25T11:37:16.931Z,44.70
2019-04-25T11:40:00.062Z,42.60
2019-04-25T11:42:33.860Z,44.10
2019-04-25T11:45:11.010Z,43.10
2019-04-25T11:47:47.190Z,45.30
2019-04-25T11:50:23.646Z,45.50
2019-04-25T11:52:54.985Z,43.00
2019-04-25T11:55:31.884Z,44.40
2019-04-25T11:58:07.625Z,42.80
2019-04-25T12:00:43.491Z,40.10
2019-04-25T12:03:23.209Z,41.90
2019-04-25T12:05:57.243Z,42.20
2019-04-25T12:08:27.290Z,41.30
2019-04-25T12:11:09.696Z,42.40
2019-04-25T12:13:51.639Z,41.60
2019-04-25T12:16:27.753Z,40.90
2019-04-25T12:19:04.911Z,41.30
2019-04-25T12:21:35.516Z,41.70
2019-04-25T12:24:05.871Z,38.70
2019-04-25T12:26:36.211Z,39.60
2019-04-25T12:29:06.826Z,38.50
2019-04-25T12:31:44.284Z,39.00
2019-04-25T12:34:18.531Z,40.10
2019-04-25T12:36:55.116Z,35.60
2019-04-25T12:39:40.454Z,35.80
2019-04-25T12:42:22.254Z,37.10
2019-04-25T12:45:24.146Z,37.20
2019-04-25T12:47:59.222Z,34.90
2019-04-25T12:50:35.905Z,38.40
2019-04-25T12:53:11.778Z,37.00
2019-04-25T12:55:47.614Z,37.20
2019-04-25T12:58:23.491Z,35.60
2019-04-25T13:01:01.806Z,35.70
2019-04-25T13:03:33.651Z,34.10
2019-04-25T13:06:05.974Z,39.70
2019-04-25T13:08:37.212Z,36.70
2019-04-25T13:11:16.875Z,36.50
2019-04-25T13:13:55.422Z,36.20
2019-04-25T13:16:31.370Z,33.00
2019-04-25T13:19:14.816Z,35.10
2019-04-25T13:21:40.870Z,34.10
2019-04-25T13:24:19.701Z,35.00
2019-04-25T13:27:07.875Z,34.10
2019-04-25T13:30:07.778Z,33.00
2019-04-25T13:32:59.746Z,35.80
2019-04-25T13:35:39.929Z,34.80
2019-04-25T13:38:12.931Z,34.20
2019-04-25T13:40:43.227Z,33.40
2019-04-25T13:43:21.649Z,36.10
2019-04-25T13:45:57.916Z,36.40
2019-04-25T13:48:34.362Z,39.00
2019-04-25T13:51:05.000Z,35.40
2019-04-25T13:53:45.510Z,37.10
2019-04-25T13:56:40.450Z,34.40
2019-04-25T13:59:08.888Z,34.30
2019-04-25T14:01:44.512Z,35.00
2019-04-25T14:04:17.351Z,36.40
2019-04-25T14:06:50.302Z,36.40
2019-04-25T14:09:27.142Z,33.50
2019-04-25T14:11:57.516Z,33.70
2019-04-25T14:14:27.624Z,35.50
2019-04-25T14:17:24.488Z,34.70
2019-04-25T14:20:17.440Z,34.30
2019-04-25T14:22:50.059Z,33.10
2019-04-25T14:25:25.595Z,34.90
2019-04-25T14:27:57.885Z,32.70
2019-04-25T14:30:32.588Z,34.10
2019-04-25T14:33:18.211Z,34.10
2019-04-25T14:35:55.910Z,31.40
2019-04-25T14:38:41.671Z,33.30
2019-04-25T14:41:18.610Z,34.80
2019-04-25T14:43:57.066Z,33.90
2019-04-25T14:46:36.135Z,33.30
2019-04-25T14:49:14.959Z,33.80
2019-04-25T14:52:00.317Z,33.80
2019-04-25T14:55:07.786Z,34.90
2019-04-25T14:57:46.355Z,34.30
2019-04-25T15:00:30.452Z,35.00
2019-04-25T15:03:11.616Z,34.40
2019-04-25T15:05:51.550Z,34.30
2019-04-25T15:08:23.836Z,36.00
2019-04-25T15:10:55.477Z,36.30
2019-04-25T15:13:31.901Z,35.80
2019-04-25T15:16:08.385Z,36.30
2019-04-25T15:18:46.642Z,34.50
2019-04-25T15:21:12.367Z,35.00
2019-04-25T15:23:44.595Z,35.70
2019-04-25T15:26:24.566Z,34.30
2019-04-25T15:28:57.387Z,34.80
2019-04-25T15:31:30.060Z,35.80
2019-04-25T15:34:09.530Z,35.90
2019-04-25T15:36:56.891Z,35.40
2019-04-25T15:39:56.371Z,34.80
2019-04-25T15:43:05.050Z,34.70
2019-04-25T15:45:46.296Z,34.70
2019-04-25T15:48:24.207Z,35.30
2019-04-25T15:51:00.761Z,35.40
2019-04-25T15:53:38.155Z,34.60
2019-04-25T15:56:18.180Z,35.60
2019-04-25T15:58:55.009Z,35.50
2019-04-25T16:01:26.406Z,35.30
2019-04-25T16:04:05.127Z,35.40
2019-04-25T16:06:36.344Z,34.70
2019-04-25T16:09:14.272Z,35.40
2019-04-25T16:11:51.903Z,35.70
2019-04-25T16:14:35.593Z,34.80
2019-04-25T16:17:12.283Z,35.70
2019-04-25T16:20:05.060Z,35.40
2019-04-25T16:22:34.782Z,35.40
2019-04-25T16:25:10.521Z,35.50
2019-04-25T16:27:41.095Z,36.50
2019-04-25T16:30:19.879Z,37.40
2019-04-25T16:32:55.999Z,36.50
2019-04-25T16:35:26.794Z,36.70
2019-04-25T16:37:56.460Z,37.30
2019-04-25T16:40:26.412Z,37.50
2019-04-25T16:43:02.579Z,37.60
2019-04-25T16:45:33.261Z,38.30
2019-04-25T16:48:12.152Z,37.80
2019-04-25T16:50:51.474Z,37.60
2019-04-25T16:53:22.643Z,38.10
2019-04-25T16:55:52.354Z,39.30
2019-04-25T16:58:25.222Z,37.40
2019-04-25T17:01:06.948Z,36.70
2019-04-25T17:03:41.330Z,38.20
2019-04-25T17:06:14.983Z,38.70
2019-04-25T17:08:50.646Z,37.60
2019-04-25T17:11:20.344Z,38.80
2019-04-25T17:14:13.137Z,40.00
2019-04-25T17:17:10.611Z,40.10
2019-04-25T17:20:01.934Z,41.20
2019-04-25T17:22:35.364Z,40.70
2019-04-25T17:25:05.349Z,41.60
2019-04-25T17:27:37.064Z,41.30
2019-04-25T17:30:07.146Z,42.60
2019-04-25T17:33:13.913Z,44.90
2019-04-25T17:36:10.709Z,46.90
2019-04-25T17:38:43.528Z,48.70
2019-04-25T17:41:13.240Z,51.10
2019-04-25T17:43:43.850Z,51.80
2019-04-25T17:46:15.291Z,52.70
2019-04-25T17:48:44.952Z,53.30
2019-04-25T17:51:14.944Z,55.20
2019-04-25T17:53:44.567Z,56.90
2019-04-25T17:56:14.302Z,59.20
2019-04-25T17:58:44.048Z,60.20
2019-04-25T18:01:16.473Z,62.80
2019-04-25T18:03:46.155Z,64.70
2019-04-25T18:06:17.923Z,66.70
2019-04-25T18:08:47.781Z,69.20
2019-04-25T18:11:18.579Z,75.60
2019-04-25T18:13:48.237Z,81.30
2019-04-25T18:16:29.246Z,90.50
2019-04-25T18:19:17.798Z,92.20
2019-04-25T18:21:47.423Z,96.90
2019-04-25T18:24:39.200Z,99.50
2019-04-25T18:27:18.207Z,99.90
2019-04-25T18:29:48.027Z,99.90
2019-04-25T18:32:17.674Z,99.90
2019-04-25T18:34:56.506Z,99.90
2019-04-25T18:37:45.006Z,99.90
2019-04-25T18:40:37.835Z,99.90
2019-04-25T18:43:25.726Z,99.90
2019-04-25T18:45:59.531Z,99.90
2019-04-25T18:48:29.510Z,99.90
2019-04-25T18:50:59.340Z,99.90
2019-04-25T18:53:47.907Z,99.90
2019-04-25T18:56:45.883Z,99.90
2019-04-25T18:59:40.363Z,99.90
2019-04-25T19:02:32.279Z,99.90
2019-04-25T19:05:16.384Z,99.90
2019-04-25T19:07:47.421Z,99.90
2019-04-25T19:10:17.387Z,99.90
2019-04-25T19:12:47.459Z,99.90
2019-04-25T19:15:17.323Z,99.90
2019-04-25T19:17:47.394Z,99.90
2019-04-25T19:20:17.153Z,99.90
2019-04-25T19:22:46.856Z,99.90
2019-04-25T19:25:16.752Z,99.90
2019-04-25T19:27:46.633Z,99.90
2019-04-25T19:30:18.108Z,99.90
2019-04-25T19:32:47.837Z,99.90
2019-04-25T19:35:17.579Z,99.90
2019-04-25T19:37:47.288Z,99.90
2019-04-25T19:40:54.025Z,99.90
2019-04-25T19:43:48.825Z,99.90
2019-04-25T19:46:18.437Z,99.90
2019-04-25T19:48:49.101Z,99.90
2019-04-25T19:51:19.087Z,99.90
2019-04-25T19:53:51.743Z,99.90
2019-04-25T19:56:21.538Z,99.90
2019-04-25T19:58:51.229Z,99.90
2019-04-25T20:01:20.934Z,99.90
2019-04-25T20:04:00.532Z,99.90
2019-04-25T20:06:49.300Z,99.90
2019-04-25T20:09:56.174Z,99.90
2019-04-25T20:12:29.815Z,99.90
2019-04-25T20:14:59.655Z,99.90
2019-04-25T20:17:29.275Z,99.90
2019-04-25T20:19:59.220Z,99.90
2019-04-25T20:22:28.869Z,99.90
2019-04-25T20:24:58.978Z,99.90
2019-04-25T20:27:28.802Z,99.90
2019-04-25T20:29:58.491Z,99.90
2019-04-25T20:32:28.124Z,99.90
2019-04-25T20:34:57.881Z,99.90
2019-04-25T20:37:27.554Z,99.90
2019-04-25T20:39:57.297Z,99.90
2019-04-25T20:42:28.045Z,99.90
2019-04-25T20:44:57.673Z,99.90
2019-04-25T20:47:28.517Z,99.90
2019-04-25T20:49:58.277Z,99.90
2019-04-25T20:52:27.888Z,99.90
2019-04-25T20:54:57.659Z,99.90
2019-04-25T20:57:27.305Z,99.90
2019-04-25T20:59:57.891Z,99.90
2019-04-25T21:02:27.938Z,99.90
2019-04-25T21:04:57.634Z,99.90
2019-04-25T21:07:27.431Z,99.90
2019-04-25T21:09:57.615Z,99.90
2019-04-25T21:12:27.427Z,99.90
2019-04-25T21:15:14.691Z,99.90
2019-04-25T21:17:52.848Z,99.90
2019-04-25T21:20:22.530Z,99.90
2019-04-25T21:22:52.224Z,99.90
2019-04-25T21:25:22.033Z,99.90
2019-04-25T21:27:52.566Z,99.90
2019-04-25T21:30:22.422Z,99.90
2019-04-25T21:32:55.977Z,99.90
2019-04-25T21:35:26.423Z,99.90
2019-04-25T21:37:56.227Z,99.90
2019-04-25T21:40:38.980Z,99.90
2019-04-25T21:43:15.783Z,99.90
2019-04-25T21:45:46.146Z,99.90
2019-04-25T21:48:16.151Z,99.90
2019-04-25T21:50:46.112Z,99.90
2019-04-25T21:53:15.717Z,99.90
2019-04-25T21:55:45.732Z,99.90
2019-04-25T21:58:15.750Z,99.90
2019-04-25T22:01:09.735Z,99.90
2019-04-25T22:03:39.419Z,99.90
2019-04-25T22:06:09.378Z,99.90
2019-04-25T22:08:39.034Z,99.90
2019-04-25T22:11:08.666Z,99.90
2019-04-25T22:13:38.707Z,99.90
2019-04-25T22:16:08.965Z,99.90
2019-04-25T22:18:38.977Z,99.90
2019-04-25T22:21:09.113Z,99.90
2019-04-25T22:23:39.095Z,99.90
2019-04-25T22:26:09.075Z,99.90
2019-04-25T22:28:39.028Z,99.90
2019-04-25T22:31:14.412Z,99.90
2019-04-25T22:34:05.954Z,99.90
2019-04-25T22:36:35.924Z,99.90
2019-04-25T22:39:11.494Z,99.90
2019-04-25T22:41:46.458Z,99.90
2019-04-25T22:44:16.465Z,99.90
2019-04-25T22:46:46.400Z,99.90
2019-04-25T22:49:16.027Z,99.90
2019-04-25T22:51:46.899Z,99.90
2019-04-25T22:54:16.870Z,99.20
2019-04-25T22:56:46.556Z,99.50
2019-04-25T22:59:16.535Z,99.80
2019-04-25T23:02:07.586Z,94.50
2019-04-25T23:05:09.029Z,95.20
2019-04-25T23:07:30.597Z,96.10
2019-04-25T23:10:00.504Z,95.20
2019-04-25T23:12:31.794Z,93.30
2019-04-25T23:15:02.592Z,93.70
2019-04-25T23:17:33.215Z,93.20
2019-04-25T23:20:04.344Z,93.40
2019-04-25T23:22:34.579Z,92.40
2019-04-25T23:25:09.804Z,92.00
2019-04-25T23:27:45.585Z,89.80
2019-04-25T23:30:17.184Z,90.70
2019-04-25T23:32:46.884Z,90.40
2019-04-25T23:35:25.397Z,90.00
2019-04-25T23:37:47.137Z,91.00
2019-04-25T23:40:16.987Z,90.60
2019-04-25T23:42:46.614Z,90.50
2019-04-25T23:45:16.596Z,90.90
2019-04-25T23:47:46.369Z,91.20
2019-04-25T23:50:16.830Z,91.10
2019-04-25T23:52:46.745Z,91.30
2019-04-25T23:55:17.289Z,92.40
2019-04-25T23:57:47.264Z,92.00
